sensor_id;sensor_type;location;lat;lon;timestamp;P1;P2;P0
65680;PMS5003;61747;54.966;73.394;2022-08-30T00:02:29;28.75;26.00;13.00
65680;PMS5003;61747;54.966;73.394;2022-08-30T00:05:00;33.00;27.00;14.00
65680;PMS5003;61747;54.966;73.394;2022-08-30T00:07:36;31.25;26.25;14.50
65680;PMS5003;61747;54.966;73.394;2022-08-30T00:10:02;36.00;29.00;16.25
65680;PMS5003;61747;54.966;73.394;2022-08-30T00:12:29;34.50;27.00;17.00
65680;PMS5003;61747;54.966;73.394;2022-08-30T00:14:56;32.50;26.25;17.00
65680;PMS5003;61747;54.966;73.394;2022-08-30T00:17:22;33.25;27.50;17.00
65680;PMS5003;61747;54.966;73.394;2022-08-30T00:19:48;36.33;29.00;16.00
65680;PMS5003;61747;54.966;73.394;2022-08-30T00:22:24;33.00;26.25;16.25
65680;PMS5003;61747;54.966;73.394;2022-08-30T00:24:49;34.50;28.00;17.00
65680;PMS5003;61747;54.966;73.394;2022-08-30T00:27:24;29.00;26.00;16.00
65680;PMS5003;61747;54.966;73.394;2022-08-30T00:29:58;33.25;27.75;16.00
65680;PMS5003;61747;54.966;73.394;2022-08-30T00:32:24;35.00;27.33;16.00
65680;PMS5003;61747;54.966;73.394;2022-08-30T00:34:50;34.00;28.00;16.00
65680;PMS5003;61747;54.966;73.394;2022-08-30T00:37:16;33.50;28.50;16.00
65680;PMS5003;61747;54.966;73.394;2022-08-30T00:39:43;32.00;27.00;16.00
65680;PMS5003;61747;54.966;73.394;2022-08-30T00:42:13;29.50;27.00;15.00
65680;PMS5003;61747;54.966;73.394;2022-08-30T00:44:39;29.50;25.75;14.50
65680;PMS5003;61747;54.966;73.394;2022-08-30T00:47:10;30.75;25.00;16.00
65680;PMS5003;61747;54.966;73.394;2022-08-30T00:49:36;30.00;26.00;15.75
65680;PMS5003;61747;54.966;73.394;2022-08-30T00:52:08;29.50;26.00;15.00
65680;PMS5003;61747;54.966;73.394;2022-08-30T00:54:36;31.50;28.25;15.50
65680;PMS5003;61747;54.966;73.394;2022-08-30T00:57:08;33.50;26.25;16.00
65680;PMS5003;61747;54.966;73.394;2022-08-30T00:59:35;34.00;27.50;16.00
65680;PMS5003;61747;54.966;73.394;2022-08-30T01:02:05;37.50;29.50;17.25
65680;PMS5003;61747;54.966;73.394;2022-08-30T01:04:31;44.33;35.33;20.67
65680;PMS5003;61747;54.966;73.394;2022-08-30T01:06:58;44.75;35.50;21.25
65680;PMS5003;61747;54.966;73.394;2022-08-30T01:09:24;47.00;35.00;21.00
65680;PMS5003;61747;54.966;73.394;2022-08-30T01:11:50;46.00;33.00;20.00
65680;PMS5003;61747;54.966;73.394;2022-08-30T01:14:17;41.75;32.00;19.00
65680;PMS5003;61747;54.966;73.394;2022-08-30T01:16:46;40.25;31.00;19.00
65680;PMS5003;61747;54.966;73.394;2022-08-30T01:22:33;33.50;26.00;17.00
65680;PMS5003;61747;54.966;73.394;2022-08-30T01:24:57;33.75;27.00;17.50
65680;PMS5003;61747;54.966;73.394;2022-08-30T01:27:23;34.00;26.50;17.00
65680;PMS5003;61747;54.966;73.394;2022-08-30T01:29:50;36.00;27.25;16.00
65680;PMS5003;61747;54.966;73.394;2022-08-30T01:32:23;34.00;29.00;16.75
65680;PMS5003;61747;54.966;73.394;2022-08-30T01:34:59;32.50;27.00;17.00
65680;PMS5003;61747;54.966;73.394;2022-08-30T01:37:28;34.33;26.00;17.00
65680;PMS5003;61747;54.966;73.394;2022-08-30T01:39:55;33.00;27.00;17.00
65680;PMS5003;61747;54.966;73.394;2022-08-30T01:42:30;33.50;27.50;17.00
65680;PMS5003;61747;54.966;73.394;2022-08-30T01:44:56;32.00;27.00;16.00
65680;PMS5003;61747;54.966;73.394;2022-08-30T01:47:22;38.33;28.00;16.00
65680;PMS5003;61747;54.966;73.394;2022-08-30T01:49:48;33.00;28.00;15.33
65680;PMS5003;61747;54.966;73.394;2022-08-30T01:52:19;32.50;28.00;16.25
65680;PMS5003;61747;54.966;73.394;2022-08-30T01:54:46;34.33;28.00;16.33
65680;PMS5003;61747;54.966;73.394;2022-08-30T01:57:17;32.75;27.50;17.00
65680;PMS5003;61747;54.966;73.394;2022-08-30T01:59:43;34.00;26.00;17.00
65680;PMS5003;61747;54.966;73.394;2022-08-30T02:02:15;35.50;29.75;17.50
65680;PMS5003;61747;54.966;73.394;2022-08-30T02:04:46;30.50;28.00;17.00
65680;PMS5003;61747;54.966;73.394;2022-08-30T02:07:12;31.00;28.00;18.00
65680;PMS5003;61747;54.966;73.394;2022-08-30T02:09:38;33.75;27.25;16.75
65680;PMS5003;61747;54.966;73.394;2022-08-30T02:12:04;30.75;28.00;17.00
65680;PMS5003;61747;54.966;73.394;2022-08-30T02:14:32;30.00;27.00;17.50
65680;PMS5003;61747;54.966;73.394;2022-08-30T02:16:59;34.50;28.00;17.00
65680;PMS5003;61747;54.966;73.394;2022-08-30T02:19:25;30.25;27.00;17.00
65680;PMS5003;61747;54.966;73.394;2022-08-30T02:21:51;33.00;28.00;16.00
65680;PMS5003;61747;54.966;73.394;2022-08-30T02:24:17;34.00;28.00;15.00
65680;PMS5003;61747;54.966;73.394;2022-08-30T02:26:48;35.00;29.00;17.00
65680;PMS5003;61747;54.966;73.394;2022-08-30T02:29:14;33.00;28.00;17.33
65680;PMS5003;61747;54.966;73.394;2022-08-30T02:31:43;33.00;27.00;18.00
65680;PMS5003;61747;54.966;73.394;2022-08-30T02:34:09;33.33;29.67;17.67
65680;PMS5003;61747;54.966;73.394;2022-08-30T02:36:35;35.50;31.00;19.00
65680;PMS5003;61747;54.966;73.394;2022-08-30T02:39:06;37.00;32.00;19.00
65680;PMS5003;61747;54.966;73.394;2022-08-30T02:41:38;37.50;31.00;18.00
65680;PMS5003;61747;54.966;73.394;2022-08-30T02:44:05;37.75;31.00;18.75
65680;PMS5003;61747;54.966;73.394;2022-08-30T02:46:36;33.00;29.00;18.00
65680;PMS5003;61747;54.966;73.394;2022-08-30T02:49:06;32.50;29.00;17.50
65680;PMS5003;61747;54.966;73.394;2022-08-30T02:51:35;34.25;31.00;17.00
65680;PMS5003;61747;54.966;73.394;2022-08-30T02:54:01;33.00;30.67;19.00
65680;PMS5003;61747;54.966;73.394;2022-08-30T02:56:27;37.50;32.00;19.00
65680;PMS5003;61747;54.966;73.394;2022-08-30T02:58:53;36.67;32.00;19.00
65680;PMS5003;61747;54.966;73.394;2022-08-30T03:01:29;38.00;30.00;19.00
65680;PMS5003;61747;54.966;73.394;2022-08-30T03:03:59;37.00;31.00;19.00
65680;PMS5003;61747;54.966;73.394;2022-08-30T03:06:25;39.00;31.00;19.00
65680;PMS5003;61747;54.966;73.394;2022-08-30T03:08:51;36.67;29.00;19.00
65680;PMS5003;61747;54.966;73.394;2022-08-30T03:11:22;39.00;32.00;19.00
65680;PMS5003;61747;54.966;73.394;2022-08-30T03:13:48;39.00;31.00;19.00
65680;PMS5003;61747;54.966;73.394;2022-08-30T03:16:18;36.00;29.00;19.00
65680;PMS5003;61747;54.966;73.394;2022-08-30T03:18:47;37.00;30.75;18.00
65680;PMS5003;61747;54.966;73.394;2022-08-30T03:21:13;39.75;31.50;19.50
65680;PMS5003;61747;54.966;73.394;2022-08-30T03:23:45;44.00;33.00;20.00
65680;PMS5003;61747;54.966;73.394;2022-08-30T03:26:16;40.50;32.00;20.25
65680;PMS5003;61747;54.966;73.394;2022-08-30T03:28:42;39.33;32.00;21.00
65680;PMS5003;61747;54.966;73.394;2022-08-30T03:31:16;35.00;31.00;20.00
65680;PMS5003;61747;54.966;73.394;2022-08-30T03:33:47;37.25;31.00;19.00
65680;PMS5003;61747;54.966;73.394;2022-08-30T03:36:13;36.00;31.00;19.00
65680;PMS5003;61747;54.966;73.394;2022-08-30T03:38:39;38.67;31.67;20.00
65680;PMS5003;61747;54.966;73.394;2022-08-30T03:41:04;39.00;31.00;19.00
65680;PMS5003;61747;54.966;73.394;2022-08-30T03:43:34;40.50;32.00;20.00
65680;PMS5003;61747;54.966;73.394;2022-08-30T03:46:09;36.25;30.75;20.00
65680;PMS5003;61747;54.966;73.394;2022-08-30T03:48:35;35.00;30.00;18.00
65680;PMS5003;61747;54.966;73.394;2022-08-30T03:51:01;34.00;31.00;18.00
65680;PMS5003;61747;54.966;73.394;2022-08-30T03:53:27;31.50;30.00;19.00
65680;PMS5003;61747;54.966;73.394;2022-08-30T03:55:53;34.67;29.67;19.00
65680;PMS5003;61747;54.966;73.394;2022-08-30T03:58:18;37.00;31.00;19.00
65680;PMS5003;61747;54.966;73.394;2022-08-30T04:00:44;34.00;30.00;19.00
65680;PMS5003;61747;54.966;73.394;2022-08-30T04:03:10;32.00;29.00;19.00
65680;PMS5003;61747;54.966;73.394;2022-08-30T04:05:36;33.00;29.00;19.00
65680;PMS5003;61747;54.966;73.394;2022-08-30T04:08:09;31.75;29.00;18.00
65680;PMS5003;61747;54.966;73.394;2022-08-30T04:10:36;32.00;28.00;18.00
65680;PMS5003;61747;54.966;73.394;2022-08-30T04:13:03;33.00;28.00;18.00
65680;PMS5003;61747;54.966;73.394;2022-08-30T04:15:40;33.50;29.00;19.00
65680;PMS5003;61747;54.966;73.394;2022-08-30T04:18:05;30.67;28.00;18.00
65680;PMS5003;61747;54.966;73.394;2022-08-30T04:20:31;30.33;28.00;17.00
65680;PMS5003;61747;54.966;73.394;2022-08-30T04:22:58;32.00;28.00;18.00
65680;PMS5003;61747;54.966;73.394;2022-08-30T04:25:35;34.50;27.00;17.00
65680;PMS5003;61747;54.966;73.394;2022-08-30T04:28:01;34.00;27.50;18.00
65680;PMS5003;61747;54.966;73.394;2022-08-30T04:30:27;32.25;27.25;17.00
65680;PMS5003;61747;54.966;73.394;2022-08-30T04:32:53;35.00;27.33;18.33
65680;PMS5003;61747;54.966;73.394;2022-08-30T04:35:18;33.33;29.00;18.00
65680;PMS5003;61747;54.966;73.394;2022-08-30T04:37:44;33.00;29.00;18.50
65680;PMS5003;61747;54.966;73.394;2022-08-30T04:40:16;32.50;29.00;18.00
65680;PMS5003;61747;54.966;73.394;2022-08-30T04:42:41;31.25;29.00;17.00
65680;PMS5003;61747;54.966;73.394;2022-08-30T04:45:15;33.00;28.00;18.00
65680;PMS5003;61747;54.966;73.394;2022-08-30T04:47:41;30.75;28.75;19.00
65680;PMS5003;61747;54.966;73.394;2022-08-30T04:50:08;33.50;29.75;19.00
65680;PMS5003;61747;54.966;73.394;2022-08-30T04:52:44;34.50;30.25;19.00
65680;PMS5003;61747;54.966;73.394;2022-08-30T04:55:10;36.00;31.00;19.00
65680;PMS5003;61747;54.966;73.394;2022-08-30T04:57:36;36.00;32.00;19.00
65680;PMS5003;61747;54.966;73.394;2022-08-30T05:00:06;36.50;32.25;19.00
65680;PMS5003;61747;54.966;73.394;2022-08-30T05:02:43;40.00;32.25;21.00
65680;PMS5003;61747;54.966;73.394;2022-08-30T05:05:18;38.75;31.00;20.00
65680;PMS5003;61747;54.966;73.394;2022-08-30T05:08:13;34.25;31.00;19.25
65680;PMS5003;61747;54.966;73.394;2022-08-30T05:10:43;36.00;31.00;19.00
65680;PMS5003;61747;54.966;73.394;2022-08-30T05:13:09;39.25;31.00;19.00
65680;PMS5003;61747;54.966;73.394;2022-08-30T05:15:35;41.00;32.00;20.00
65680;PMS5003;61747;54.966;73.394;2022-08-30T05:18:02;35.00;31.00;19.00
65680;PMS5003;61747;54.966;73.394;2022-08-30T05:20:28;33.00;30.00;19.00
65680;PMS5003;61747;54.966;73.394;2022-08-30T05:22:54;32.00;29.00;18.33
65680;PMS5003;61747;54.966;73.394;2022-08-30T05:25:27;33.00;30.00;17.25
65680;PMS5003;61747;54.966;73.394;2022-08-30T05:27:54;33.00;29.00;18.00
65680;PMS5003;61747;54.966;73.394;2022-08-30T05:30:25;36.75;30.50;18.00
65680;PMS5003;61747;54.966;73.394;2022-08-30T05:32:52;32.75;29.00;17.00
65680;PMS5003;61747;54.966;73.394;2022-08-30T05:35:18;33.25;30.00;17.25
65680;PMS5003;61747;54.966;73.394;2022-08-30T05:37:44;32.00;29.00;17.00
65680;PMS5003;61747;54.966;73.394;2022-08-30T05:40:14;31.00;28.25;18.00
65680;PMS5003;61747;54.966;73.394;2022-08-30T05:42:52;33.00;29.00;18.00
65680;PMS5003;61747;54.966;73.394;2022-08-30T05:45:18;36.25;29.00;19.00
65680;PMS5003;61747;54.966;73.394;2022-08-30T05:47:53;35.75;29.50;18.00
65680;PMS5003;61747;54.966;73.394;2022-08-30T05:50:19;36.00;30.00;17.00
65680;PMS5003;61747;54.966;73.394;2022-08-30T05:52:44;35.00;30.00;16.00
65680;PMS5003;61747;54.966;73.394;2022-08-30T05:55:10;32.00;29.00;17.00
65680;PMS5003;61747;54.966;73.394;2022-08-30T05:57:46;31.00;28.00;18.00
65680;PMS5003;61747;54.966;73.394;2022-08-30T06:00:14;28.00;27.00;18.00
65680;PMS5003;61747;54.966;73.394;2022-08-30T06:02:51;29.00;28.00;17.00
65680;PMS5003;61747;54.966;73.394;2022-08-30T06:05:17;31.00;29.00;16.00
65680;PMS5003;61747;54.966;73.394;2022-08-30T06:07:54;30.00;27.00;16.00
65680;PMS5003;61747;54.966;73.394;2022-08-30T06:10:19;28.00;25.00;15.00
65680;PMS5003;61747;54.966;73.394;2022-08-30T06:12:45;27.00;25.00;16.00
65680;PMS5003;61747;54.966;73.394;2022-08-30T06:15:11;27.67;27.00;16.00
65680;PMS5003;61747;54.966;73.394;2022-08-30T06:17:37;28.00;25.00;14.00
65680;PMS5003;61747;54.966;73.394;2022-08-30T06:20:04;29.75;27.50;15.00
65680;PMS5003;61747;54.966;73.394;2022-08-30T06:22:30;35.00;30.00;15.00
65680;PMS5003;61747;54.966;73.394;2022-08-30T06:24:55;33.00;29.00;15.00
65680;PMS5003;61747;54.966;73.394;2022-08-30T06:27:21;32.00;27.00;16.33
65680;PMS5003;61747;54.966;73.394;2022-08-30T06:29:49;32.00;28.00;18.00
65680;PMS5003;61747;54.966;73.394;2022-08-30T06:32:15;30.00;26.00;15.00
65680;PMS5003;61747;54.966;73.394;2022-08-30T06:34:50;28.00;27.50;16.00
65680;PMS5003;61747;54.966;73.394;2022-08-30T06:37:16;29.00;28.00;16.00
65680;PMS5003;61747;54.966;73.394;2022-08-30T06:39:42;31.00;28.00;16.00
65680;PMS5003;61747;54.966;73.394;2022-08-30T06:42:07;30.33;27.67;18.00
65680;PMS5003;61747;54.966;73.394;2022-08-30T06:44:34;34.00;29.00;19.00
65680;PMS5003;61747;54.966;73.394;2022-08-30T06:47:00;33.67;29.00;19.00
65680;PMS5003;61747;54.966;73.394;2022-08-30T06:49:26;35.67;30.67;19.00
65680;PMS5003;61747;54.966;73.394;2022-08-30T06:51:56;31.00;29.00;19.00
65680;PMS5003;61747;54.966;73.394;2022-08-30T06:54:22;32.00;27.67;18.00
65680;PMS5003;61747;54.966;73.394;2022-08-30T06:56:48;30.00;27.33;18.00
65680;PMS5003;61747;54.966;73.394;2022-08-30T06:59:24;30.00;27.50;17.25
65680;PMS5003;61747;54.966;73.394;2022-08-30T07:01:50;32.00;29.00;18.75
65680;PMS5003;61747;54.966;73.394;2022-08-30T07:04:16;29.25;25.00;18.00
65680;PMS5003;61747;54.966;73.394;2022-08-30T07:06:42;30.00;26.33;17.67
65680;PMS5003;61747;54.966;73.394;2022-08-30T07:09:08;30.50;29.00;17.00
65680;PMS5003;61747;54.966;73.394;2022-08-30T07:11:34;29.00;26.67;17.00
65680;PMS5003;61747;54.966;73.394;2022-08-30T07:14:00;31.25;28.50;18.00
65680;PMS5003;61747;54.966;73.394;2022-08-30T07:16:26;33.00;29.00;18.00
65680;PMS5003;61747;54.966;73.394;2022-08-30T07:18:52;32.00;29.00;18.00
65680;PMS5003;61747;54.966;73.394;2022-08-30T07:21:23;32.00;29.00;18.50
65680;PMS5003;61747;54.966;73.394;2022-08-30T07:24:00;32.00;29.00;19.00
65680;PMS5003;61747;54.966;73.394;2022-08-30T07:26:27;30.00;28.75;18.50
65680;PMS5003;61747;54.966;73.394;2022-08-30T07:29:03;34.00;30.00;19.00
65680;PMS5003;61747;54.966;73.394;2022-08-30T07:31:34;33.00;28.25;19.00
65680;PMS5003;61747;54.966;73.394;2022-08-30T07:34:11;33.50;28.50;19.00
65680;PMS5003;61747;54.966;73.394;2022-08-30T07:36:37;29.67;27.00;19.00
65680;PMS5003;61747;54.966;73.394;2022-08-30T07:39:05;29.00;28.00;18.00
65680;PMS5003;61747;54.966;73.394;2022-08-30T07:41:40;29.00;27.00;17.00
65680;PMS5003;61747;54.966;73.394;2022-08-30T07:44:07;29.00;26.00;17.00
65680;PMS5003;61747;54.966;73.394;2022-08-30T07:46:33;30.25;27.75;16.00
65680;PMS5003;61747;54.966;73.394;2022-08-30T07:48:59;32.50;28.50;16.50
65680;PMS5003;61747;54.966;73.394;2022-08-30T07:51:35;31.00;28.00;17.00
65680;PMS5003;61747;54.966;73.394;2022-08-30T07:54:01;32.00;28.00;16.00
65680;PMS5003;61747;54.966;73.394;2022-08-30T07:56:27;29.00;27.00;17.00
65680;PMS5003;61747;54.966;73.394;2022-08-30T07:58:52;28.00;25.33;17.00
65680;PMS5003;61747;54.966;73.394;2022-08-30T08:01:18;30.00;27.00;17.00
65680;PMS5003;61747;54.966;73.394;2022-08-30T08:03:49;31.00;26.75;15.00
65680;PMS5003;61747;54.966;73.394;2022-08-30T08:06:26;29.00;25.50;15.00
65680;PMS5003;61747;54.966;73.394;2022-08-30T08:08:52;29.50;26.00;16.75
65680;PMS5003;61747;54.966;73.394;2022-08-30T08:11:23;30.00;26.00;17.00
65680;PMS5003;61747;54.966;73.394;2022-08-30T08:13:50;28.00;25.00;16.00
65680;PMS5003;61747;54.966;73.394;2022-08-30T08:16:16;29.00;27.25;16.00
65680;PMS5003;61747;54.966;73.394;2022-08-30T08:18:43;30.00;28.00;15.00
65680;PMS5003;61747;54.966;73.394;2022-08-30T08:21:19;31.00;27.00;15.75
65680;PMS5003;61747;54.966;73.394;2022-08-30T08:23:46;31.00;27.25;15.75
65680;PMS5003;61747;54.966;73.394;2022-08-30T08:26:11;29.00;27.00;15.00
65680;PMS5003;61747;54.966;73.394;2022-08-30T08:28:47;29.00;26.00;14.00
65680;PMS5003;61747;54.966;73.394;2022-08-30T08:31:22;29.50;27.00;16.25
65680;PMS5003;61747;54.966;73.394;2022-08-30T08:33:48;28.00;25.75;17.00
65680;PMS5003;61747;54.966;73.394;2022-08-30T08:36:13;32.00;29.00;18.33
65680;PMS5003;61747;54.966;73.394;2022-08-30T08:38:39;31.75;28.00;18.00
65680;PMS5003;61747;54.966;73.394;2022-08-30T08:43:35;30.75;27.00;16.75
65680;PMS5003;61747;54.966;73.394;2022-08-30T08:48:47;33.25;28.50;16.50
65680;PMS5003;61747;54.966;73.394;2022-08-30T08:51:16;33.50;29.00;18.00
65680;PMS5003;61747;54.966;73.394;2022-08-30T08:56:31;28.00;24.67;16.00
65680;PMS5003;61747;54.966;73.394;2022-08-30T08:58:57;27.00;25.67;15.00
65680;PMS5003;61747;54.966;73.394;2022-08-30T09:01:26;28.00;27.00;16.00
65680;PMS5003;61747;54.966;73.394;2022-08-30T09:04:00;27.25;27.25;16.00
65680;PMS5003;61747;54.966;73.394;2022-08-30T09:06:42;27.25;26.00;16.00
65680;PMS5003;61747;54.966;73.394;2022-08-30T09:09:17;29.00;29.00;16.50
65680;PMS5003;61747;54.966;73.394;2022-08-30T09:11:45;27.00;26.00;17.00
65680;PMS5003;61747;54.966;73.394;2022-08-30T09:14:13;28.75;26.75;16.00
65680;PMS5003;61747;54.966;73.394;2022-08-30T09:19:10;29.00;27.00;16.00
65680;PMS5003;61747;54.966;73.394;2022-08-30T09:21:36;25.75;23.00;16.00
65680;PMS5003;61747;54.966;73.394;2022-08-30T09:24:07;27.00;25.00;15.25
65680;PMS5003;61747;54.966;73.394;2022-08-30T09:26:46;27.00;25.00;15.00
65680;PMS5003;61747;54.966;73.394;2022-08-30T09:29:20;32.00;26.00;16.00
65680;PMS5003;61747;54.966;73.394;2022-08-30T09:31:52;30.75;26.00;17.00
65680;PMS5003;61747;54.966;73.394;2022-08-30T09:34:29;27.50;26.00;16.00
65680;PMS5003;61747;54.966;73.394;2022-08-30T09:36:57;26.00;26.00;16.00
65680;PMS5003;61747;54.966;73.394;2022-08-30T09:39:30;25.33;23.33;15.00
65680;PMS5003;61747;54.966;73.394;2022-08-30T09:42:14;32.00;27.50;15.75
65680;PMS5003;61747;54.966;73.394;2022-08-30T09:44:43;31.00;28.00;15.50
65680;PMS5003;61747;54.966;73.394;2022-08-30T09:47:17;28.33;27.33;16.00
65680;PMS5003;61747;54.966;73.394;2022-08-30T09:49:43;30.00;26.75;16.75
65680;PMS5003;61747;54.966;73.394;2022-08-30T09:54:42;27.00;27.00;16.00
65680;PMS5003;61747;54.966;73.394;2022-08-30T10:08:28;27.00;24.25;14.00
65680;PMS5003;61747;54.966;73.394;2022-08-30T10:10:39;26.50;25.00;15.50
65680;PMS5003;61747;54.966;73.394;2022-08-30T10:16:12;28.75;26.00;16.00
65680;PMS5003;61747;54.966;73.394;2022-08-30T10:21:29;26.00;21.00;13.00
65680;PMS5003;61747;54.966;73.394;2022-08-30T10:23:57;27.00;22.50;12.00
65680;PMS5003;61747;54.966;73.394;2022-08-30T10:29:13;27.00;24.00;12.00
65680;PMS5003;61747;54.966;73.394;2022-08-30T10:31:43;28.00;23.25;12.00
65680;PMS5003;61747;54.966;73.394;2022-08-30T10:34:18;27.00;23.00;12.00
65680;PMS5003;61747;54.966;73.394;2022-08-30T10:36:51;27.25;23.00;14.00
65680;PMS5003;61747;54.966;73.394;2022-08-30T10:39:26;28.00;22.25;14.00
65680;PMS5003;61747;54.966;73.394;2022-08-30T10:44:51;29.25;27.00;15.00
65680;PMS5003;61747;54.966;73.394;2022-08-30T10:49:46;31.00;26.00;16.25
65680;PMS5003;61747;54.966;73.394;2022-08-30T10:52:21;32.00;26.00;17.00
65680;PMS5003;61747;54.966;73.394;2022-08-30T10:54:49;30.00;28.00;17.00
65680;PMS5003;61747;54.966;73.394;2022-08-30T10:57:15;35.50;29.00;17.00
65680;PMS5003;61747;54.966;73.394;2022-08-30T10:59:43;34.00;28.50;19.00
65680;PMS5003;61747;54.966;73.394;2022-08-30T11:05:10;33.25;28.00;19.00
65680;PMS5003;61747;54.966;73.394;2022-08-30T11:08:06;34.00;29.00;19.00
65680;PMS5003;61747;54.966;73.394;2022-08-30T11:18:53;35.25;31.00;19.00
65680;PMS5003;61747;54.966;73.394;2022-08-30T11:21:35;37.25;31.00;20.00
65680;PMS5003;61747;54.966;73.394;2022-08-30T11:24:09;34.00;31.00;20.00
65680;PMS5003;61747;54.966;73.394;2022-08-30T11:44:38;28.33;23.33;15.00
65680;PMS5003;61747;54.966;73.394;2022-08-30T11:47:50;29.00;25.00;15.00
65680;PMS5003;61747;54.966;73.394;2022-08-30T11:52:58;29.00;26.00;15.75
65680;PMS5003;61747;54.966;73.394;2022-08-30T11:55:37;28.00;26.00;16.00
65680;PMS5003;61747;54.966;73.394;2022-08-30T11:58:18;26.50;25.00;15.25
65680;PMS5003;61747;54.966;73.394;2022-08-30T12:00:47;30.75;27.00;16.00
65680;PMS5003;61747;54.966;73.394;2022-08-30T12:03:27;30.25;26.50;16.00
65680;PMS5003;61747;54.966;73.394;2022-08-30T12:11:04;33.00;29.00;17.00
65680;PMS5003;61747;54.966;73.394;2022-08-30T12:26:31;30.25;28.75;18.50
65680;PMS5003;61747;54.966;73.394;2022-08-30T12:34:27;34.00;30.00;19.00
65680;PMS5003;61747;54.966;73.394;2022-08-30T12:40:15;34.25;28.00;19.00
65680;PMS5003;61747;54.966;73.394;2022-08-30T12:43:03;33.75;28.25;19.00
65680;PMS5003;61747;54.966;73.394;2022-08-30T12:45:35;36.00;29.00;19.00
65680;PMS5003;61747;54.966;73.394;2022-08-30T12:48:12;37.00;29.00;19.25
65680;PMS5003;61747;54.966;73.394;2022-08-30T12:50:44;32.00;28.50;19.25
65680;PMS5003;61747;54.966;73.394;2022-08-30T12:53:13;33.50;29.50;19.00
65680;PMS5003;61747;54.966;73.394;2022-08-30T12:55:51;32.25;28.00;18.00
65680;PMS5003;61747;54.966;73.394;2022-08-30T13:06:34;36.75;30.00;19.50
65680;PMS5003;61747;54.966;73.394;2022-08-30T13:09:01;34.00;28.50;19.00
65680;PMS5003;61747;54.966;73.394;2022-08-30T13:11:26;35.00;29.00;19.00
65680;PMS5003;61747;54.966;73.394;2022-08-30T13:13:57;31.67;26.00;17.00
65680;PMS5003;61747;54.966;73.394;2022-08-30T13:16:41;31.00;26.00;16.00
65680;PMS5003;61747;54.966;73.394;2022-08-30T13:21:52;30.00;28.00;17.00
65680;PMS5003;61747;54.966;73.394;2022-08-30T13:24:18;26.00;24.50;16.00
65680;PMS5003;61747;54.966;73.394;2022-08-30T13:26:44;23.67;22.67;13.00
65680;PMS5003;61747;54.966;73.394;2022-08-30T13:29:20;25.00;21.00;13.00
65680;PMS5003;61747;54.966;73.394;2022-08-30T13:31:46;27.00;22.25;12.00
65680;PMS5003;61747;54.966;73.394;2022-08-30T13:34:17;26.00;24.50;12.00
65680;PMS5003;61747;54.966;73.394;2022-08-30T13:36:53;26.50;24.00;10.75
65680;PMS5003;61747;54.966;73.394;2022-08-30T13:39:19;30.00;24.75;12.75
65680;PMS5003;61747;54.966;73.394;2022-08-30T13:41:50;27.25;24.50;14.25
65680;PMS5003;61747;54.966;73.394;2022-08-30T13:44:16;30.00;25.00;15.00
65680;PMS5003;61747;54.966;73.394;2022-08-30T13:46:46;27.00;25.00;15.00
65680;PMS5003;61747;54.966;73.394;2022-08-30T13:49:17;27.00;24.00;16.00
65680;PMS5003;61747;54.966;73.394;2022-08-30T13:51:43;29.00;23.75;14.00
65680;PMS5003;61747;54.966;73.394;2022-08-30T13:54:19;30.00;26.50;15.00
65680;PMS5003;61747;54.966;73.394;2022-08-30T13:56:47;30.25;27.00;15.25
65680;PMS5003;61747;54.966;73.394;2022-08-30T13:59:18;29.50;26.75;15.50
65680;PMS5003;61747;54.966;73.394;2022-08-30T14:01:44;30.25;27.75;15.00
65680;PMS5003;61747;54.966;73.394;2022-08-30T14:04:10;32.75;26.25;16.00
65680;PMS5003;61747;54.966;73.394;2022-08-30T14:06:36;30.00;25.50;16.50
65680;PMS5003;61747;54.966;73.394;2022-08-30T14:09:02;30.00;25.00;17.00
65680;PMS5003;61747;54.966;73.394;2022-08-30T14:11:30;30.50;27.25;17.00
65680;PMS5003;61747;54.966;73.394;2022-08-30T14:14:07;32.50;30.50;17.50
65680;PMS5003;61747;54.966;73.394;2022-08-30T14:16:34;34.50;29.00;17.00
65680;PMS5003;61747;54.966;73.394;2022-08-30T14:19:00;37.00;31.00;18.75
65680;PMS5003;61747;54.966;73.394;2022-08-30T14:21:26;34.75;31.00;19.50
65680;PMS5003;61747;54.966;73.394;2022-08-30T14:23:58;37.50;32.25;20.75
65680;PMS5003;61747;54.966;73.394;2022-08-30T14:26:36;45.75;36.50;22.75
65680;PMS5003;61747;54.966;73.394;2022-08-30T14:29:07;49.50;39.25;25.50
65680;PMS5003;61747;54.966;73.394;2022-08-30T14:31:33;49.00;37.00;24.50
65680;PMS5003;61747;54.966;73.394;2022-08-30T14:34:05;45.25;35.25;22.50
65680;PMS5003;61747;54.966;73.394;2022-08-30T14:36:42;44.50;36.75;23.00
65680;PMS5003;61747;54.966;73.394;2022-08-30T14:39:09;41.25;34.00;22.00
65680;PMS5003;61747;54.966;73.394;2022-08-30T14:41:41;37.50;32.50;21.50
65680;PMS5003;61747;54.966;73.394;2022-08-30T14:44:07;40.75;32.00;20.25
65680;PMS5003;61747;54.966;73.394;2022-08-30T14:46:33;38.33;31.00;19.00
65680;PMS5003;61747;54.966;73.394;2022-08-30T14:48:59;37.67;32.00;19.00
65680;PMS5003;61747;54.966;73.394;2022-08-30T14:51:30;44.00;34.00;21.75
65680;PMS5003;61747;54.966;73.394;2022-08-30T14:53:55;39.00;33.00;22.00
65680;PMS5003;61747;54.966;73.394;2022-08-30T14:56:22;40.75;33.50;21.25
65680;PMS5003;61747;54.966;73.394;2022-08-30T14:58:53;41.75;33.00;22.00
65680;PMS5003;61747;54.966;73.394;2022-08-30T15:01:24;40.25;33.25;22.00
65680;PMS5003;61747;54.966;73.394;2022-08-30T15:04:01;42.50;35.50;23.00
65680;PMS5003;61747;54.966;73.394;2022-08-30T15:06:28;48.75;39.50;26.00
65680;PMS5003;61747;54.966;73.394;2022-08-30T15:08:58;56.00;43.50;28.00
65680;PMS5003;61747;54.966;73.394;2022-08-30T15:11:23;56.00;44.00;28.00
65680;PMS5003;61747;54.966;73.394;2022-08-30T15:13:50;59.25;44.50;27.00
65680;PMS5003;61747;54.966;73.394;2022-08-30T15:16:23;61.25;46.25;30.25
65680;PMS5003;61747;54.966;73.394;2022-08-30T15:18:50;60.00;47.00;29.00
65680;PMS5003;61747;54.966;73.394;2022-08-30T15:21:23;57.50;44.50;28.50
65680;PMS5003;61747;54.966;73.394;2022-08-30T15:23:49;54.50;42.00;27.00
65680;PMS5003;61747;54.966;73.394;2022-08-30T15:26:15;52.50;40.00;27.00
65680;PMS5003;61747;54.966;73.394;2022-08-30T15:28:45;56.00;44.00;29.00
65680;PMS5003;61747;54.966;73.394;2022-08-30T15:31:19;59.00;45.00;30.00
65680;PMS5003;61747;54.966;73.394;2022-08-30T15:33:45;58.00;45.75;30.00
65680;PMS5003;61747;54.966;73.394;2022-08-30T15:36:16;57.00;44.75;28.50
65680;PMS5003;61747;54.966;73.394;2022-08-30T15:38:42;56.00;44.00;28.00